ASA1414 KSAN-MMSD
Flight info
| Callsign | ASA1414 |
|---|---|
| Flight time | 1h 44m |
| Altitude | 39000 |
| Route | ZZOOO4 CENZA DCT TIJ UT6 IMUSU UT25 LTO/N0385F170 V4 ENEKO ENEKO1A |
| Aircraft | B739/M-SDE2E3FGHIRWXY/LB1 |
Departure
| Time | 2026-05-04 20:31 |
|---|---|
| Airport | San Diego International Airport (KSAN) |
Arrival
| Time | 2026-05-04 22:15 |
|---|---|
| Airport | Los Cabos International Airport (MMSD) |
| Time | Latitude | Longitude | Altitude | Speed | Heading |
|---|---|---|---|---|---|
| 2026-05-04 20:10 | 32.73378 | -117.20347 | 20 ft | 0 kts | 269° |
| 2026-05-04 20:19 | 32.73378 | -117.20346 | 20 ft | 1 kts | 269° |
| 2026-05-04 20:19 | 32.73379 | -117.20330 | 20 ft | 3 kts | 265° |
| 2026-05-04 20:20 | 32.73380 | -117.20309 | 20 ft | 3 kts | 276° |
| 2026-05-04 20:20 | 32.73375 | -117.20289 | 25 ft | 3 kts | 316° |
| 2026-05-04 20:20 | 32.73359 | -117.20276 | 21 ft | 3 kts | 342° |
| 2026-05-04 20:20 | 32.73351 | -117.20274 | 22 ft | 0 kts | 345° |
| 2026-05-04 20:23 | 32.73370 | -117.20277 | 22 ft | 7 kts | 354° |
| 2026-05-04 20:23 | 32.73431 | -117.20265 | 21 ft | 11 kts | 17° |
| 2026-05-04 20:23 | 32.73512 | -117.20236 | 21 ft | 13 kts | 21° |
| 2026-05-04 20:23 | 32.73541 | -117.20143 | 22 ft | 16 kts | 106° |
| 2026-05-04 20:24 | 32.73504 | -117.19994 | 22 ft | 21 kts | 106° |
| 2026-05-04 20:24 | 32.73463 | -117.19827 | 23 ft | 21 kts | 106° |
| 2026-05-04 20:24 | 32.73421 | -117.19653 | 22 ft | 23 kts | 106° |
| 2026-05-04 20:24 | 32.73373 | -117.19455 | 24 ft | 24 kts | 105° |
| 2026-05-04 20:25 | 32.73321 | -117.19241 | 20 ft | 29 kts | 106° |
| 2026-05-04 20:25 | 32.73262 | -117.19000 | 22 ft | 31 kts | 106° |
| 2026-05-04 20:25 | 32.73202 | -117.18754 | 28 ft | 20 kts | 106° |
| 2026-05-04 20:25 | 32.73158 | -117.18570 | 19 ft | 27 kts | 106° |
| 2026-05-04 20:26 | 32.73100 | -117.18334 | 19 ft | 33 kts | 106° |
| 2026-05-04 20:26 | 32.73037 | -117.18070 | 16 ft | 29 kts | 106° |
| 2026-05-04 20:26 | 32.73000 | -117.17917 | 15 ft | 18 kts | 106° |
| 2026-05-04 20:26 | 32.72970 | -117.17792 | 15 ft | 14 kts | 105° |
| 2026-05-04 20:27 | 32.72954 | -117.17720 | 14 ft | 7 kts | 102° |
| 2026-05-04 20:27 | 32.72953 | -117.17690 | 14 ft | 0 kts | 86° |
| 2026-05-04 20:29 | 32.72955 | -117.17670 | 14 ft | 5 kts | 78° |
| 2026-05-04 20:29 | 32.72963 | -117.17636 | 16 ft | 8 kts | 75° |
| 2026-05-04 20:29 | 32.73003 | -117.17560 | 18 ft | 5 kts | 2° |
| 2026-05-04 20:29 | 32.73021 | -117.17585 | 17 ft | 8 kts | 287° |
| 2026-05-04 20:30 | 32.73046 | -117.17687 | 15 ft | 22 kts | 285° |
| 2026-05-04 20:30 | 32.73144 | -117.18091 | 15 ft | 83 kts | 285° |
| 2026-05-04 20:30 | 32.73356 | -117.18962 | 21 ft | 134 kts | 287° |
| 2026-05-04 20:30 | 32.73642 | -117.20169 | 164 ft | 160 kts | 285° |
| 2026-05-04 20:31 | 32.73927 | -117.21438 | 744 ft | 160 kts | 285° |
| 2026-05-04 20:31 | 32.74240 | -117.22744 | 1250 ft | 171 kts | 284° |
| 2026-05-04 20:31 | 32.74581 | -117.24134 | 1897 ft | 181 kts | 289° |
| 2026-05-04 20:31 | 32.75044 | -117.25640 | 2246 ft | 213 kts | 289° |
| 2026-05-04 20:32 | 32.75440 | -117.27405 | 2832 ft | 226 kts | 282° |
| 2026-05-04 20:32 | 32.75761 | -117.29259 | 3453 ft | 234 kts | 283° |
| 2026-05-04 20:32 | 32.76210 | -117.31176 | 3982 ft | 248 kts | 287° |
| 2026-05-04 20:32 | 32.76574 | -117.33201 | 4660 ft | 253 kts | 268° |
| 2026-05-04 20:33 | 32.75999 | -117.35114 | 5560 ft | 248 kts | 234° |
| 2026-05-04 20:33 | 32.74680 | -117.36405 | 6390 ft | 250 kts | 210° |
| 2026-05-04 20:33 | 32.72945 | -117.36997 | 6766 ft | 271 kts | 185° |
| 2026-05-04 20:33 | 32.71083 | -117.36612 | 7493 ft | 275 kts | 158° |
| 2026-05-04 20:34 | 32.69578 | -117.35247 | 8382 ft | 276 kts | 133° |
| 2026-05-04 20:34 | 32.68433 | -117.33387 | 9100 ft | 279 kts | 128° |
| 2026-05-04 20:34 | 32.67342 | -117.31512 | 9828 ft | 281 kts | 129° |
| 2026-05-04 20:34 | 32.66218 | -117.29611 | 10528 ft | 282 kts | 130° |
| 2026-05-04 20:35 | 32.65106 | -117.27650 | 11056 ft | 296 kts | 123° |
| 2026-05-04 20:35 | 32.64188 | -117.25337 | 11244 ft | 322 kts | 117° |
| 2026-05-04 20:35 | 32.63301 | -117.22797 | 11420 ft | 345 kts | 116° |
| 2026-05-04 20:35 | 32.62362 | -117.20098 | 11762 ft | 360 kts | 116° |
| 2026-05-04 20:36 | 32.61404 | -117.17303 | 12276 ft | 369 kts | 116° |
| 2026-05-04 20:36 | 32.60444 | -117.14442 | 12935 ft | 374 kts | 116° |
| 2026-05-04 20:36 | 32.59392 | -117.11608 | 13551 ft | 375 kts | 126° |
| 2026-05-04 20:36 | 32.57866 | -117.09131 | 14250 ft | 368 kts | 140° |
| 2026-05-04 20:37 | 32.56108 | -117.07006 | 15071 ft | 363 kts | 142° |
| 2026-05-04 20:37 | 32.54290 | -117.04857 | 15802 ft | 367 kts | 143° |
| 2026-05-04 20:37 | 32.52477 | -117.02722 | 16274 ft | 377 kts | 143° |
| 2026-05-04 20:37 | 32.50606 | -117.00507 | 16842 ft | 383 kts | 142° |
| 2026-05-04 20:38 | 32.48730 | -116.98264 | 17571 ft | 384 kts | 143° |
| 2026-05-04 20:38 | 32.46847 | -116.96003 | 18256 ft | 387 kts | 143° |
| 2026-05-04 20:38 | 32.44944 | -116.93714 | 18809 ft | 391 kts | 143° |
| 2026-05-04 20:38 | 32.43034 | -116.91410 | 19445 ft | 392 kts | 143° |
| 2026-05-04 20:39 | 32.41124 | -116.89102 | 20056 ft | 394 kts | 144° |
| 2026-05-04 20:39 | 32.39200 | -116.86783 | 20615 ft | 397 kts | 144° |
| 2026-05-04 20:39 | 32.37254 | -116.84451 | 21165 ft | 400 kts | 145° |
| 2026-05-04 20:39 | 32.35304 | -116.82105 | 21809 ft | 400 kts | 145° |
| 2026-05-04 20:40 | 32.33347 | -116.79751 | 22394 ft | 402 kts | 145° |
| 2026-05-04 20:40 | 32.31378 | -116.77385 | 22974 ft | 404 kts | 146° |
| 2026-05-04 20:40 | 32.29394 | -116.75001 | 23560 ft | 409 kts | 146° |
| 2026-05-04 20:40 | 32.27396 | -116.72587 | 23981 ft | 413 kts | 146° |
| 2026-05-04 20:41 | 32.25367 | -116.70154 | 24382 ft | 416 kts | 146° |
| 2026-05-04 20:41 | 32.23318 | -116.67716 | 24793 ft | 420 kts | 146° |
| 2026-05-04 20:41 | 32.21273 | -116.65275 | 25152 ft | 426 kts | 145° |
| 2026-05-04 20:41 | 32.20391 | -116.61775 | 25300 ft | 502 kts | 86° |
| 2026-05-04 20:42 | 32.20739 | -116.57699 | 25667 ft | 488 kts | 107° |
| 2026-05-04 20:42 | 32.19615 | -116.54130 | 26114 ft | 446 kts | 137° |
| 2026-05-04 20:42 | 32.17502 | -116.51686 | 26545 ft | 412 kts | 160° |
| 2026-05-04 20:42 | 32.14959 | -116.50441 | 26950 ft | 387 kts | 177° |
| 2026-05-04 20:43 | 32.12344 | -116.49782 | 27363 ft | 385 kts | 179° |
| 2026-05-04 20:43 | 32.09701 | -116.49113 | 27742 ft | 392 kts | 176° |
| 2026-05-04 20:43 | 32.07068 | -116.48104 | 28116 ft | 405 kts | 169° |
| 2026-05-04 20:43 | 32.04488 | -116.46623 | 28427 ft | 419 kts | 162° |
| 2026-05-04 20:44 | 32.02034 | -116.44771 | 28815 ft | 429 kts | 157° |
| 2026-05-04 20:44 | 31.99621 | -116.42628 | 29188 ft | 437 kts | 154° |
| 2026-05-04 20:44 | 31.97257 | -116.40339 | 29553 ft | 442 kts | 152° |
| 2026-05-04 20:44 | 31.94913 | -116.37985 | 29944 ft | 444 kts | 152° |
| 2026-05-04 20:45 | 31.92567 | -116.35610 | 30294 ft | 446 kts | 152° |
| 2026-05-04 20:45 | 31.90187 | -116.33276 | 30538 ft | 442 kts | 154° |
| 2026-05-04 20:45 | 31.87793 | -116.30949 | 30834 ft | 448 kts | 152° |
| 2026-05-04 20:45 | 31.85449 | -116.28584 | 31085 ft | 450 kts | 152° |
| 2026-05-04 20:46 | 31.83065 | -116.26180 | 31327 ft | 452 kts | 153° |
| 2026-05-04 20:46 | 31.80657 | -116.23778 | 31444 ft | 457 kts | 153° |
| 2026-05-04 20:46 | 31.78214 | -116.21362 | 31636 ft | 460 kts | 153° |
| 2026-05-04 20:46 | 31.75762 | -116.18944 | 31970 ft | 460 kts | 153° |
| 2026-05-04 20:47 | 31.73305 | -116.16542 | 32341 ft | 457 kts | 155° |
| 2026-05-04 20:47 | 31.70822 | -116.14253 | 32756 ft | 452 kts | 156° |
| 2026-05-04 20:47 | 31.68321 | -116.12036 | 33159 ft | 449 kts | 157° |
| 2026-05-04 20:47 | 31.65817 | -116.09846 | 33523 ft | 448 kts | 158° |
| 2026-05-04 20:48 | 31.63316 | -116.07663 | 33857 ft | 448 kts | 158° |
| 2026-05-04 20:48 | 31.60823 | -116.05476 | 34218 ft | 447 kts | 158° |
| 2026-05-04 20:48 | 31.58340 | -116.03284 | 34552 ft | 446 kts | 158° |
| 2026-05-04 20:48 | 31.55866 | -116.01092 | 34817 ft | 446 kts | 158° |
| 2026-05-04 20:49 | 31.53392 | -115.98897 | 35074 ft | 446 kts | 158° |
| 2026-05-04 20:49 | 31.50920 | -115.96702 | 35345 ft | 445 kts | 158° |
| 2026-05-04 20:49 | 31.48452 | -115.94510 | 35607 ft | 445 kts | 158° |
| 2026-05-04 20:49 | 31.45969 | -115.92306 | 35700 ft | 451 kts | 157° |
| 2026-05-04 20:50 | 31.43528 | -115.90045 | 35979 ft | 451 kts | 157° |
| 2026-05-04 20:50 | 31.41049 | -115.87827 | 36322 ft | 446 kts | 158° |
| 2026-05-04 20:50 | 31.38568 | -115.85656 | 36623 ft | 444 kts | 159° |
| 2026-05-04 20:50 | 31.36088 | -115.83495 | 36904 ft | 442 kts | 159° |
| 2026-05-04 20:51 | 31.33622 | -115.81342 | 37083 ft | 444 kts | 159° |
| 2026-05-04 20:51 | 31.31140 | -115.79173 | 37070 ft | 446 kts | 158° |
| 2026-05-04 20:51 | 31.26185 | -115.74813 | 37065 ft | 444 kts | 158° |
| 2026-05-04 20:52 | 31.21273 | -115.70507 | 37046 ft | 438 kts | 158° |
| 2026-05-04 20:52 | 31.16454 | -115.66129 | 37073 ft | 437 kts | 159° |
| 2026-05-04 20:53 | 31.11578 | -115.61838 | 37059 ft | 441 kts | 159° |
| 2026-05-04 20:53 | 31.06578 | -115.57563 | 37054 ft | 448 kts | 159° |
| 2026-05-04 20:54 | 31.01610 | -115.53166 | 37038 ft | 450 kts | 158° |
| 2026-05-04 20:54 | 30.96593 | -115.48794 | 37030 ft | 450 kts | 158° |
| 2026-05-04 20:55 | 30.91572 | -115.44418 | 37034 ft | 450 kts | 158° |
| 2026-05-04 20:55 | 30.86589 | -115.40066 | 37032 ft | 451 kts | 158° |
| 2026-05-04 20:56 | 30.81570 | -115.35686 | 37028 ft | 450 kts | 158° |
| 2026-05-04 20:56 | 30.76587 | -115.31212 | 37012 ft | 454 kts | 156° |
| 2026-05-04 20:57 | 30.71653 | -115.26615 | 37008 ft | 454 kts | 155° |
| 2026-05-04 20:57 | 30.66757 | -115.22020 | 37054 ft | 448 kts | 157° |
| 2026-05-04 20:58 | 30.61830 | -115.17560 | 37028 ft | 449 kts | 156° |
| 2026-05-04 20:58 | 30.56925 | -115.13036 | 36975 ft | 451 kts | 156° |
| 2026-05-04 20:59 | 30.52016 | -115.08501 | 36991 ft | 451 kts | 156° |
| 2026-05-04 20:59 | 30.47135 | -115.04015 | 37000 ft | 451 kts | 156° |
| 2026-05-04 21:00 | 30.42198 | -114.99505 | 36992 ft | 451 kts | 156° |
| 2026-05-04 21:00 | 30.37270 | -114.94986 | 36939 ft | 449 kts | 158° |
| 2026-05-04 21:01 | 30.32330 | -114.90581 | 37013 ft | 451 kts | 156° |
| 2026-05-04 21:01 | 30.27408 | -114.86035 | 37008 ft | 454 kts | 156° |
| 2026-05-04 21:02 | 30.22446 | -114.81474 | 37019 ft | 456 kts | 156° |
| 2026-05-04 21:02 | 30.17457 | -114.76918 | 37017 ft | 458 kts | 156° |
| 2026-05-04 21:03 | 30.12472 | -114.72401 | 37007 ft | 458 kts | 156° |
| 2026-05-04 21:03 | 30.07451 | -114.67832 | 37011 ft | 459 kts | 156° |
| 2026-05-04 21:04 | 30.02427 | -114.63271 | 37012 ft | 459 kts | 156° |
| 2026-05-04 21:04 | 29.97401 | -114.58712 | 37011 ft | 459 kts | 156° |
| 2026-05-04 21:05 | 29.92381 | -114.54156 | 37007 ft | 457 kts | 155° |
| 2026-05-04 21:05 | 29.87384 | -114.49655 | 37003 ft | 453 kts | 156° |
| 2026-05-04 21:06 | 29.82433 | -114.45198 | 37001 ft | 450 kts | 156° |
| 2026-05-04 21:06 | 29.77539 | -114.40785 | 37005 ft | 449 kts | 156° |
| 2026-05-04 21:07 | 29.72604 | -114.36356 | 36993 ft | 452 kts | 156° |
| 2026-05-04 21:07 | 29.67597 | -114.31877 | 37011 ft | 460 kts | 155° |
| 2026-05-04 21:08 | 29.62535 | -114.27303 | 37025 ft | 464 kts | 155° |
| 2026-05-04 21:08 | 29.57434 | -114.22755 | 37004 ft | 464 kts | 155° |
| 2026-05-04 21:09 | 29.52333 | -114.18186 | 37012 ft | 464 kts | 155° |
| 2026-05-04 21:09 | 29.47285 | -114.13675 | 37002 ft | 462 kts | 155° |
| 2026-05-04 21:10 | 29.42215 | -114.09175 | 37040 ft | 455 kts | 156° |
| 2026-05-04 21:10 | 29.37167 | -114.04741 | 36998 ft | 457 kts | 155° |
| 2026-05-04 21:11 | 29.32178 | -114.00248 | 37014 ft | 457 kts | 155° |
| 2026-05-04 21:11 | 29.27164 | -113.95757 | 37025 ft | 458 kts | 155° |
| 2026-05-04 21:12 | 29.22134 | -113.91287 | 37010 ft | 460 kts | 155° |
| 2026-05-04 21:12 | 29.17035 | -113.86854 | 37016 ft | 461 kts | 154° |
| 2026-05-04 21:13 | 29.11961 | -113.82376 | 37042 ft | 461 kts | 155° |
| 2026-05-04 21:13 | 29.06907 | -113.77805 | 37023 ft | 463 kts | 155° |
| 2026-05-04 21:14 | 29.01807 | -113.73285 | 36978 ft | 465 kts | 154° |
| 2026-05-04 21:14 | 28.97528 | -113.69514 | 37016 ft | 467 kts | 154° |
| 2026-05-04 21:15 | 28.91535 | -113.64236 | 37027 ft | 468 kts | 154° |
| 2026-05-04 21:15 | 28.87245 | -113.60458 | 37006 ft | 469 kts | 154° |
| 2026-05-04 21:16 | 28.82082 | -113.55915 | 37003 ft | 468 kts | 154° |
| 2026-05-04 21:16 | 28.76928 | -113.51381 | 37008 ft | 467 kts | 154° |
| 2026-05-04 21:17 | 28.71785 | -113.46867 | 36996 ft | 466 kts | 154° |
| 2026-05-04 21:17 | 28.66639 | -113.42359 | 36970 ft | 466 kts | 154° |
| 2026-05-04 21:18 | 28.61529 | -113.37893 | 36991 ft | 465 kts | 154° |
| 2026-05-04 21:18 | 28.56393 | -113.33398 | 36975 ft | 464 kts | 154° |
| 2026-05-04 21:19 | 28.51268 | -113.28913 | 36982 ft | 465 kts | 152° |
| 2026-05-04 21:19 | 28.46155 | -113.24607 | 37009 ft | 456 kts | 156° |
| 2026-05-04 21:20 | 28.41087 | -113.20142 | 36995 ft | 461 kts | 153° |
| 2026-05-04 21:20 | 28.36019 | -113.15636 | 36985 ft | 463 kts | 154° |
| 2026-05-04 21:21 | 28.30933 | -113.11209 | 36984 ft | 464 kts | 154° |
| 2026-05-04 21:21 | 28.25780 | -113.06784 | 36993 ft | 464 kts | 153° |
| 2026-05-04 21:22 | 28.20629 | -113.02317 | 36983 ft | 467 kts | 153° |
| 2026-05-04 21:22 | 28.15474 | -112.97823 | 36999 ft | 467 kts | 153° |
| 2026-05-04 21:23 | 28.10299 | -112.93343 | 36961 ft | 468 kts | 153° |
| 2026-05-04 21:23 | 28.05067 | -112.89030 | 37020 ft | 464 kts | 153° |
| 2026-05-04 21:24 | 28.00000 | -112.84442 | 36978 ft | 469 kts | 152° |
| 2026-05-04 21:24 | 27.94828 | -112.79945 | 36966 ft | 469 kts | 153° |
| 2026-05-04 21:25 | 27.89604 | -112.75493 | 36966 ft | 471 kts | 153° |
| 2026-05-04 21:25 | 27.84379 | -112.71027 | 36953 ft | 471 kts | 153° |
| 2026-05-04 21:26 | 27.79154 | -112.66547 | 36958 ft | 472 kts | 153° |
| 2026-05-04 21:26 | 27.73914 | -112.62054 | 36967 ft | 473 kts | 153° |
| 2026-05-04 21:27 | 27.68693 | -112.57584 | 36962 ft | 473 kts | 153° |
| 2026-05-04 21:27 | 27.63438 | -112.53091 | 36961 ft | 474 kts | 153° |
| 2026-05-04 21:28 | 27.58256 | -112.48452 | 36945 ft | 471 kts | 155° |
| 2026-05-04 21:28 | 27.52928 | -112.44177 | 36945 ft | 470 kts | 154° |
| 2026-05-04 21:29 | 27.47694 | -112.39740 | 36973 ft | 470 kts | 152° |
| 2026-05-04 21:29 | 27.42532 | -112.35276 | 36963 ft | 471 kts | 153° |
| 2026-05-04 21:30 | 27.37307 | -112.30824 | 36936 ft | 471 kts | 153° |
| 2026-05-04 21:30 | 27.32061 | -112.26413 | 36955 ft | 468 kts | 155° |
| 2026-05-04 21:31 | 27.23824 | -112.20668 | 36945 ft | 463 kts | 159° |
| 2026-05-04 21:32 | 27.18326 | -112.16973 | 36964 ft | 464 kts | 159° |
| 2026-05-04 21:32 | 27.12807 | -112.13201 | 36926 ft | 464 kts | 158° |
| 2026-05-04 21:33 | 27.07293 | -112.09402 | 36953 ft | 465 kts | 158° |
| 2026-05-04 21:33 | 27.01778 | -112.05601 | 36952 ft | 465 kts | 158° |
| 2026-05-04 21:34 | 26.96259 | -112.01806 | 36962 ft | 466 kts | 158° |
| 2026-05-04 21:34 | 26.90726 | -111.97970 | 36960 ft | 469 kts | 156° |
| 2026-05-04 21:35 | 26.85204 | -111.94171 | 36954 ft | 466 kts | 158° |
| 2026-05-04 21:35 | 26.79641 | -111.90404 | 36944 ft | 467 kts | 158° |
| 2026-05-04 21:36 | 26.74087 | -111.86608 | 36953 ft | 468 kts | 157° |
| 2026-05-04 21:36 | 26.68531 | -111.82808 | 36954 ft | 468 kts | 157° |
| 2026-05-04 21:37 | 26.62966 | -111.79009 | 36925 ft | 468 kts | 157° |
| 2026-05-04 21:37 | 26.57395 | -111.75208 | 36947 ft | 468 kts | 157° |
| 2026-05-04 21:38 | 26.51863 | -111.71436 | 36959 ft | 469 kts | 157° |
| 2026-05-04 21:38 | 26.46284 | -111.67638 | 36951 ft | 470 kts | 157° |
| 2026-05-04 21:39 | 26.40691 | -111.63833 | 36956 ft | 470 kts | 157° |
| 2026-05-04 21:39 | 26.35099 | -111.60034 | 36945 ft | 470 kts | 157° |
| 2026-05-04 21:40 | 26.29514 | -111.56243 | 36963 ft | 470 kts | 157° |
| 2026-05-04 21:40 | 26.23955 | -111.52475 | 36957 ft | 470 kts | 157° |
| 2026-05-04 21:41 | 26.18356 | -111.48684 | 36956 ft | 471 kts | 157° |
| 2026-05-04 21:41 | 26.12747 | -111.44890 | 36959 ft | 471 kts | 157° |
| 2026-05-04 21:42 | 26.07176 | -111.41126 | 36950 ft | 471 kts | 157° |
| 2026-05-04 21:42 | 26.01575 | -111.37344 | 36951 ft | 471 kts | 157° |
| 2026-05-04 21:43 | 25.96231 | -111.33027 | 36999 ft | 486 kts | 142° |
| 2026-05-04 21:43 | 25.91562 | -111.27526 | 37006 ft | 489 kts | 140° |
| 2026-05-04 21:44 | 25.86947 | -111.21959 | 36992 ft | 489 kts | 140° |
| 2026-05-04 21:44 | 25.82328 | -111.16477 | 36967 ft | 489 kts | 140° |
| 2026-05-04 21:45 | 25.77651 | -111.10992 | 36956 ft | 489 kts | 140° |
| 2026-05-04 21:45 | 25.72961 | -111.05511 | 36948 ft | 489 kts | 140° |
| 2026-05-04 21:46 | 25.68274 | -111.00037 | 36941 ft | 490 kts | 140° |
| 2026-05-04 21:46 | 25.63612 | -110.94595 | 36944 ft | 490 kts | 140° |
| 2026-05-04 21:47 | 25.58917 | -110.89121 | 36936 ft | 490 kts | 140° |
| 2026-05-04 21:47 | 25.54219 | -110.83649 | 36940 ft | 490 kts | 140° |
| 2026-05-04 21:48 | 25.49517 | -110.78181 | 36938 ft | 490 kts | 140° |
| 2026-05-04 21:48 | 25.44812 | -110.72715 | 36945 ft | 491 kts | 140° |
| 2026-05-04 21:49 | 25.40102 | -110.67249 | 36939 ft | 491 kts | 140° |
| 2026-05-04 21:49 | 25.35383 | -110.61779 | 36925 ft | 491 kts | 140° |
| 2026-05-04 21:50 | 25.30669 | -110.56320 | 36942 ft | 491 kts | 140° |
| 2026-05-04 21:50 | 25.25946 | -110.50860 | 36942 ft | 491 kts | 140° |
| 2026-05-04 21:51 | 25.21253 | -110.45442 | 36939 ft | 491 kts | 140° |
| 2026-05-04 21:51 | 25.16532 | -110.39995 | 36944 ft | 491 kts | 140° |
| 2026-05-04 21:52 | 25.11802 | -110.34543 | 36944 ft | 491 kts | 140° |
| 2026-05-04 21:52 | 25.07077 | -110.29102 | 36944 ft | 490 kts | 140° |
| 2026-05-04 21:53 | 25.02354 | -110.23669 | 36937 ft | 490 kts | 140° |
| 2026-05-04 21:53 | 24.97639 | -110.18253 | 36939 ft | 489 kts | 140° |
| 2026-05-04 21:54 | 24.92950 | -110.12874 | 36941 ft | 489 kts | 140° |
| 2026-05-04 21:54 | 24.88228 | -110.07463 | 36948 ft | 489 kts | 140° |
| 2026-05-04 21:55 | 24.83512 | -110.02065 | 36934 ft | 488 kts | 139° |
| 2026-05-04 21:55 | 24.78802 | -109.96680 | 36941 ft | 487 kts | 139° |
| 2026-05-04 21:56 | 24.74098 | -109.91309 | 36929 ft | 488 kts | 139° |
| 2026-05-04 21:56 | 24.71718 | -109.88597 | 36279 ft | 496 kts | 140° |
| 2026-05-04 21:56 | 24.69355 | -109.85904 | 35623 ft | 494 kts | 140° |
| 2026-05-04 21:56 | 24.66963 | -109.83178 | 34818 ft | 495 kts | 140° |
| 2026-05-04 21:57 | 24.64568 | -109.80448 | 33983 ft | 497 kts | 140° |
| 2026-05-04 21:57 | 24.62165 | -109.77714 | 33012 ft | 499 kts | 140° |
| 2026-05-04 21:57 | 24.59750 | -109.74965 | 32082 ft | 500 kts | 139° |
| 2026-05-04 21:57 | 24.57329 | -109.72211 | 31164 ft | 501 kts | 139° |
| 2026-05-04 21:58 | 24.54902 | -109.69454 | 30186 ft | 503 kts | 139° |
| 2026-05-04 21:58 | 24.52458 | -109.66681 | 29041 ft | 506 kts | 139° |
| 2026-05-04 21:58 | 24.50011 | -109.63903 | 28006 ft | 506 kts | 139° |
| 2026-05-04 21:58 | 24.47579 | -109.61140 | 27303 ft | 498 kts | 139° |
| 2026-05-04 21:59 | 24.45184 | -109.58421 | 26535 ft | 493 kts | 139° |
| 2026-05-04 21:59 | 24.42814 | -109.55734 | 25805 ft | 487 kts | 139° |
| 2026-05-04 21:59 | 24.40497 | -109.53110 | 25081 ft | 482 kts | 139° |
| 2026-05-04 21:59 | 24.38174 | -109.50482 | 24357 ft | 478 kts | 138° |
| 2026-05-04 22:00 | 24.35871 | -109.47879 | 23642 ft | 473 kts | 139° |
| 2026-05-04 22:00 | 24.33376 | -109.45606 | 22795 ft | 460 kts | 155° |
| 2026-05-04 22:00 | 24.30465 | -109.44350 | 22104 ft | 443 kts | 170° |
| 2026-05-04 22:00 | 24.27436 | -109.43882 | 21145 ft | 437 kts | 182° |
| 2026-05-04 22:01 | 24.24452 | -109.44187 | 20385 ft | 427 kts | 194° |
| 2026-05-04 22:01 | 24.21577 | -109.44916 | 19693 ft | 421 kts | 196° |
| 2026-05-04 22:01 | 24.18743 | -109.45685 | 19002 ft | 416 kts | 196° |
| 2026-05-04 22:01 | 24.15940 | -109.46448 | 18312 ft | 413 kts | 196° |
| 2026-05-04 22:02 | 24.13198 | -109.47180 | 17567 ft | 409 kts | 195° |
| 2026-05-04 22:02 | 24.10446 | -109.47899 | 16871 ft | 404 kts | 195° |
| 2026-05-04 22:02 | 24.07724 | -109.48600 | 16199 ft | 399 kts | 195° |
| 2026-05-04 22:02 | 24.05033 | -109.49288 | 15546 ft | 395 kts | 194° |
| 2026-05-04 22:03 | 24.02361 | -109.49969 | 14894 ft | 391 kts | 194° |
| 2026-05-04 22:03 | 23.99718 | -109.50642 | 14236 ft | 389 kts | 194° |
| 2026-05-04 22:03 | 23.97976 | -109.51085 | 13804 ft | 387 kts | 194° |
| 2026-05-04 22:03 | 23.95361 | -109.51751 | 13096 ft | 385 kts | 194° |
| 2026-05-04 22:04 | 23.92762 | -109.52412 | 12437 ft | 381 kts | 194° |
| 2026-05-04 22:04 | 23.90184 | -109.53084 | 11758 ft | 378 kts | 196° |
| 2026-05-04 22:04 | 23.87647 | -109.53923 | 10973 ft | 380 kts | 199° |
| 2026-05-04 22:04 | 23.85202 | -109.54844 | 10753 ft | 365 kts | 200° |
| 2026-05-04 22:05 | 23.82854 | -109.55750 | 10579 ft | 350 kts | 201° |
| 2026-05-04 22:05 | 23.80627 | -109.56606 | 10427 ft | 337 kts | 200° |
| 2026-05-04 22:05 | 23.78455 | -109.57430 | 10268 ft | 325 kts | 200° |
| 2026-05-04 22:05 | 23.76357 | -109.58219 | 10125 ft | 314 kts | 200° |
| 2026-05-04 22:06 | 23.74318 | -109.58979 | 9984 ft | 303 kts | 200° |
| 2026-05-04 22:06 | 23.72352 | -109.59709 | 9843 ft | 293 kts | 200° |
| 2026-05-04 22:06 | 23.70463 | -109.60407 | 9785 ft | 281 kts | 201° |
| 2026-05-04 22:06 | 23.68628 | -109.61085 | 9539 ft | 276 kts | 200° |
| 2026-05-04 22:07 | 23.66817 | -109.61754 | 9325 ft | 274 kts | 200° |
| 2026-05-04 22:07 | 23.65038 | -109.62411 | 9112 ft | 273 kts | 201° |
| 2026-05-04 22:07 | 23.63230 | -109.63078 | 8890 ft | 274 kts | 200° |
| 2026-05-04 22:07 | 23.61423 | -109.63745 | 8568 ft | 275 kts | 201° |
| 2026-05-04 22:08 | 23.59606 | -109.64414 | 8201 ft | 276 kts | 201° |
| 2026-05-04 22:08 | 23.57779 | -109.65087 | 7787 ft | 279 kts | 201° |
| 2026-05-04 22:08 | 23.55925 | -109.65770 | 7319 ft | 283 kts | 201° |
| 2026-05-04 22:08 | 23.54044 | -109.66462 | 6869 ft | 287 kts | 201° |
| 2026-05-04 22:09 | 23.52136 | -109.67163 | 6413 ft | 291 kts | 201° |
| 2026-05-04 22:09 | 23.50209 | -109.67873 | 5932 ft | 294 kts | 201° |
| 2026-05-04 22:09 | 23.48257 | -109.68591 | 5459 ft | 296 kts | 201° |
| 2026-05-04 22:09 | 23.46317 | -109.69303 | 4991 ft | 299 kts | 201° |
| 2026-05-04 22:10 | 23.44337 | -109.70030 | 4499 ft | 301 kts | 200° |
| 2026-05-04 22:10 | 23.42351 | -109.70760 | 4006 ft | 302 kts | 200° |
| 2026-05-04 22:10 | 23.40348 | -109.71494 | 3529 ft | 304 kts | 199° |
| 2026-05-04 22:10 | 23.38341 | -109.72230 | 3079 ft | 304 kts | 199° |
| 2026-05-04 22:11 | 23.36383 | -109.72949 | 3012 ft | 290 kts | 199° |
| 2026-05-04 22:11 | 23.34503 | -109.73638 | 2895 ft | 279 kts | 199° |
| 2026-05-04 22:11 | 23.32917 | -109.74076 | 2797 ft | 269 kts | 183° |
| 2026-05-04 22:11 | 23.31115 | -109.73916 | 2770 ft | 251 kts | 173° |
| 2026-05-04 22:12 | 23.29438 | -109.73708 | 2674 ft | 235 kts | 173° |
| 2026-05-04 22:12 | 23.27864 | -109.73521 | 2506 ft | 221 kts | 173° |
| 2026-05-04 22:12 | 23.26368 | -109.73344 | 2266 ft | 212 kts | 173° |
| 2026-05-04 22:12 | 23.24958 | -109.73181 | 2011 ft | 193 kts | 173° |
| 2026-05-04 22:13 | 23.23664 | -109.73036 | 1719 ft | 177 kts | 172° |
| 2026-05-04 22:13 | 23.22515 | -109.72905 | 1501 ft | 155 kts | 172° |
| 2026-05-04 22:13 | 23.21490 | -109.72788 | 1319 ft | 146 kts | 170° |
| 2026-05-04 22:13 | 23.20483 | -109.72673 | 1129 ft | 142 kts | 170° |
| 2026-05-04 22:14 | 23.19523 | -109.72561 | 986 ft | 139 kts | 171° |
| 2026-05-04 22:14 | 23.18564 | -109.72448 | 757 ft | 137 kts | 169° |
| 2026-05-04 22:14 | 23.17620 | -109.72328 | 640 ft | 140 kts | 173° |
| 2026-05-04 22:14 | 23.16658 | -109.72237 | 432 ft | 139 kts | 171° |
| 2026-05-04 22:15 | 23.15713 | -109.72132 | 371 ft | 124 kts | 175° |
| 2026-05-04 22:15 | 23.15070 | -109.72061 | 351 ft | 62 kts | 174° |
| 2026-05-04 22:15 | 23.14830 | -109.72033 | 349 ft | 22 kts | 174° |
| 2026-05-04 22:15 | 23.14665 | -109.71979 | 335 ft | 28 kts | 153° |
| 2026-05-04 22:16 | 23.14526 | -109.71884 | 328 ft | 21 kts | 144° |
| 2026-05-04 22:16 | 23.14482 | -109.71799 | 325 ft | 12 kts | 58° |
| 2026-05-04 22:16 | 23.14553 | -109.71796 | 325 ft | 11 kts | 353° |
| 2026-05-04 22:16 | 23.14633 | -109.71805 | 328 ft | 12 kts | 354° |
| 2026-05-04 22:17 | 23.14721 | -109.71815 | 331 ft | 14 kts | 354° |
| 2026-05-04 22:17 | 23.14822 | -109.71826 | 338 ft | 15 kts | 353° |
| 2026-05-04 22:17 | 23.14936 | -109.71839 | 348 ft | 18 kts | 354° |
| 2026-05-04 22:17 | 23.15068 | -109.71854 | 349 ft | 20 kts | 354° |
| 2026-05-04 22:18 | 23.15216 | -109.71871 | 356 ft | 22 kts | 354° |
| 2026-05-04 22:18 | 23.15376 | -109.71890 | 360 ft | 21 kts | 353° |
| 2026-05-04 22:18 | 23.15533 | -109.71908 | 365 ft | 24 kts | 354° |
| 2026-05-04 22:18 | 23.15677 | -109.71925 | 363 ft | 21 kts | 353° |
| 2026-05-04 22:19 | 23.15783 | -109.71938 | 368 ft | 14 kts | 354° |
| 2026-05-04 22:19 | 23.15848 | -109.71925 | 365 ft | 7 kts | 47° |
| 2026-05-04 22:19 | 23.15858 | -109.71871 | 370 ft | 8 kts | 88° |
| 2026-05-04 22:19 | 23.15863 | -109.71811 | 364 ft | 6 kts | 84° |
| 2026-05-04 22:20 | 23.15865 | -109.71791 | 367 ft | 0 kts | 84° |